West Point, PA (19486)

17:58 EST le 20 décembre 2014 (GMT -0500)
North Wales, Pa | Change Station
CLOSE
Current Station
Stations météorologiques personnelles
Location: North Wales, PA
Altitude: 374 ft
Stations météo à proximité

Alt. 374 ft 40.22 °N, 75.28 °W | Updated 2 seconds ago

Couvert
Couvert
31.4 ° F
Paraît 31 ° F
N
0.0
Vent Variable Vent de NNO
Gusts 1.0 mph

Aujourd'hui
Haut(e) -- | Bas -- ° F
--% Risque de précip.
Hier
Haut(e) -- | Bas -- ° F
Precip. -- pouce
7:19 AM 4:38 PM
Lune descendante, 2% visible
Pression 30.26 pouce
Visibilité 10.0 Miles terrestres
Nuages Couvert 3100 ft
Refroidissement éolien 31 ° F
Point de rosée 23 ° F
Humidité 72%
Précipitations 0.00 pouce
Profondeur de la couche neigeuse Non disponible.
UV 0 sur 12
Pollen .10 sur 12
Qualité de l'air Non disponible.
Flu Activity Non disponible.
METAR KLOM 202235Z AUTO 00000KT 10SM OVC031 01/M05 A3026 RMK AO1

More Conditions Fewer Conditions

Pression 30.26 pouce
Visibilité 10.0 Miles terrestres
Nuages Couvert 3100 ft
Refroidissement éolien 31 ° F
Point de rosée 23 ° F
Humidité 72%
Précipitations 0.00 pouce
Profondeur de la couche neigeuse Non disponible.
UV 0 sur 12
Pollen .10 sur 12
Qualité de l'air Non disponible.
Flu Activity Non disponible.
METAR KLOM 202235Z AUTO 00000KT 10SM OVC031 01/M05 A3026 RMK AO1

More Conditions Fewer Conditions

Nowcast | as of 5:13 PM EST on December 20, 2014

Into the middle of the evening mostly cloudy skies will prevail. Scattered light snow showers continue to fall from mid level clouds, but nearly all has and is expected to continue to evaporate before reaching the ground. There are some breaks in the clouds, so temperatures will vary from the upper 20s where skies are clearer in rural spots to the mid 30s where skies remain cloudier.

×

10-Day Weather Forecast

Almanac

Astronomie

Dec. 20, 2014 Lever Coucher
Temps réel
Crépuscule civil
Crépuscule nautique
Crépuscule astronomique
Lune
Durée de lumière visible
Longueur du jour
Tomorrow will be .
, % of the Moon is Illuminated

Extrêmes aujourd'hui

State Highs State Lows

Community

WunderPhotos

Upload Photos

1,779,293 Photos téléchargées !

WunderBlogs® & News

Nearby

Qualité de l'air

  Qualité de l'air Indice de la qualité de l'air Polluant
Not available.

Épaisseur de neige

Station Depth Altitude

Activité sismique

Ville Distance Mag. Time & Date
Minimum magnitude displayed is 2.5.

Températures des eaux côtières

Lieu Température

Stations météo à proximité